Airfield :
LOGIN :

Register | Disclaimer

   EN    FR    IT 

 










Legend :    VFR   Marginal VFR   IFR   Intensive IFR   Very Intensive IFR
Visi :
Ceiling :
>= 8 km
>= 3000ft
5 to 8 km
1000 to 3000 ft
1500m to 5 km
500 to 1000 ft
800 to 1500m
200 to 500 ft
< 800m
< 200 ft
Symbols :   Thunderstorms  Fog  Heavy snow  Heavy precipitations  Wind > 20 kt
SIGMETs :     Misc.  Thunderstorms  Icing  Turbulence  Mountain Waves  Volcanic Ashes







- Airport Elevation : 425 ft
- IATA code : DTM


EDLW - Dortmund

CURRENT METAR :
  • 151220Z VRB02KT CAVOK 11/04 Q1025

EXPIRED METARs :
  • 151150Z 16004KT 080V230 CAVOK 11/04 Q1025
  • 151120Z 19005KT CAVOK 10/04 Q1025
  • 151050Z 19005KT CAVOK 09/04 Q1025
  • 151020Z 17005KT 140V220 CAVOK 08/04 Q1026
  • 150950Z 16007KT CAVOK 07/04 Q1026
  • 150920Z 16007KT CAVOK 07/04 Q1026

TAF TAF EDLW
Valid from the 15 at 12:00 until the 16 at 12:00 UTC


151100Z 1512/1612 15006KT CAVOK
BECMG 1603/1606 08005KT
No reported NOTAMs for that airfield.



MET'MAP, your aeronautical weather chart ! - Copyright ORBIFLY December 2007 - Disclaimer

ORBIFLY MET'MAP TEAM :

Programming & Development : Alexandra Zaïnal
Concept & Development : Baudouin d'Aumeries
Co-Development & Prog : Marc-Olivier Méhu
Technical & hardware support : Manuel Goepfert

Contact : metmap@orbifly.com




SOURCES & CREDITS :

   NOAA